Airfield :
LOGIN :

Register | Disclaimer

   EN    FR    IT 

 










Legend :    VFR   Marginal VFR   IFR   Intensive IFR   Very Intensive IFR
Visi :
Ceiling :
>= 8 km
>= 3000ft
5 to 8 km
1000 to 3000 ft
1500m to 5 km
500 to 1000 ft
800 to 1500m
200 to 500 ft
< 800m
< 200 ft
Symbols :   Thunderstorms  Fog  Heavy snow  Heavy precipitations  Wind > 20 kt
SIGMETs :     Misc.  Thunderstorms  Icing  Turbulence  Mountain Waves  Volcanic Ashes







- Airport Elevation : 203 ft
- IATA code : XMJ
- Download approach charts


LFBM - Mont-De-Marsan

CURRENT METAR :
  • 220600Z AUTO 25007KT 9999 -RADZ FEW010 BKN036 OVC042 12/12 Q1026 BECMG BKN007

EXPIRED METARs :
  • 220530Z AUTO 26008KT 230V290 9999 FEW010 SCT021 BKN031 12/12 Q1026 BECMG BKN007
  • 220500Z AUTO 25009KT 220V280 9999 -RADZ SCT012 SCT026 OVC041 13/12 Q1026 BECMG BKN007
  • 220430Z AUTO 25008KT 9999 FEW009 BKN013 BKN019 12/12 Q1026 BECMG BKN007
  • 220400Z AUTO 24007KT 210V270 9999 BKN014 OVC020 13/12 Q1026 BECMG BKN007
  • 220330Z AUTO 24007KT 9999 BKN019 OVC025 13/12 Q1026 BECMG BKN007

TAF TAF LFBM
Valid from the 22 at 03:00 until the 23 at 03:00 UTC


220200Z 2203/2303 26010KT 9999 BKN010 BKN020
BECMG 2205/2207 BKN007
BECMG 2208/2210 BKN014
TEMPO 2210/2214 28020KT 4000 -RADZ BKN007
BECMG 2214/2216 BKN006
BECMG 2218/2221 VRB02KT 3000 BR
BECMG 2223/2302 0500 FG VV///
No reported NOTAMs for that airfield.
1 SIGMET reported for the Bordeaux FIR (LFBB) :
 
Severe turbulence
LFBB SIGMET 1 VALID 220400/220700 LFPW
LFBB BORDEAUX FIR/UIR SEV TURB FCST WI N4545 E00300 - N4215 E00230 - N4230 E00130 - N4545 E00215 - N4545 E00300 SFC/FL080 STNR NC=



MET'MAP, your aeronautical weather chart ! - Copyright ORBIFLY December 2007 - Disclaimer

ORBIFLY MET'MAP TEAM :

Programming & Development : Alexandra Zaïnal
Concept & Development : Baudouin d'Aumeries
Co-Development & Prog : Marc-Olivier Méhu
Technical & hardware support : Manuel Goepfert

Contact : metmap@orbifly.com




SOURCES & CREDITS :

   NOAA